Time;durP1;ratioP1;P1;durP2;ratioP2;P2;SDS_P1;SDS_P2;PMS_P1;PMS_P2;Temp;Humidity;BMP_temperature;BMP_pressure;BME280_temperature;BME280_humidity;BME280_pressure;Samples;Min_cycle;Max_cycle;Signal;HPM_P1;HPM_P2
2024/03/10 00:01:27;;;;;;;30.37;27.63;;;;;;;;;;5015240;28;20235;-82
2024/03/10 00:03:54;;;;;;;29.35;26.75;;;;;;;;;;5015678;28;20484;-82
2024/03/10 00:06:21;;;;;;;28.87;26.30;;;;;;;;;;5015832;28;20232;-80
2024/03/10 00:08:48;;;;;;;32.33;29.33;;;;;;;;;;5015661;28;20452;-82
2024/03/10 00:11:15;;;;;;;32.67;29.63;;;;;;;;;;5015194;28;20201;-81
2024/03/10 00:13:42;;;;;;;30.10;27.50;;;;;;;;;;5015738;28;21253;-80
2024/03/10 00:16:10;;;;;;;30.37;27.63;;;;;;;;;;5016045;28;20856;-82
2024/03/10 00:18:38;;;;;;;32.10;29.30;;;;;;;;;;5035755;28;20443;-81
2024/03/10 00:21:05;;;;;;;30.30;27.58;;;;;;;;;;5034615;28;20486;-81
2024/03/10 00:23:33;;;;;;;31.77;28.90;;;;;;;;;;5035338;28;20694;-82
2024/03/10 00:26:00;;;;;;;32.17;29.57;;;;;;;;;;5034124;28;20731;-81
2024/03/10 00:28:29;;;;;;;30.93;28.03;;;;;;;;;;5013046;28;20952;-81
2024/03/10 00:30:56;;;;;;;31.00;28.27;;;;;;;;;;5011471;28;20476;-82
2024/03/10 00:33:23;;;;;;;31.60;28.60;;;;;;;;;;5007704;28;20523;-80
2024/03/10 00:35:52;;;;;;;31.63;28.87;;;;;;;;;;5015151;28;20423;-80
2024/03/10 00:38:19;;;;;;;32.90;30.00;;;;;;;;;;5015355;28;20441;-81
2024/03/10 00:40:46;;;;;;;32.70;29.40;;;;;;;;;;5014803;28;20510;-80
2024/03/10 00:43:14;;;;;;;30.63;27.77;;;;;;;;;;5014675;28;21046;-80
2024/03/10 00:45:40;;;;;;;33.80;30.50;;;;;;;;;;5015204;28;20210;-82
2024/03/10 00:48:08;;;;;;;32.50;29.60;;;;;;;;;;5015381;28;20662;-82
2024/03/10 00:50:35;;;;;;;32.20;29.42;;;;;;;;;;5015139;28;20453;-81
2024/03/10 00:53:03;;;;;;;32.20;29.30;;;;;;;;;;4998777;28;20912;-81
2024/03/10 00:55:30;;;;;;;30.92;28.30;;;;;;;;;;4995202;28;20449;-81
2024/03/10 00:57:57;;;;;;;32.20;29.23;;;;;;;;;;4995793;28;20268;-81
2024/03/10 01:00:25;;;;;;;30.17;27.40;;;;;;;;;;4995685;28;20457;-80
2024/03/10 01:02:52;;;;;;;31.42;28.50;;;;;;;;;;5006339;28;20552;-82
2024/03/10 01:05:19;;;;;;;31.13;28.33;;;;;;;;;;5025838;28;20309;-80
2024/03/10 01:07:46;;;;;;;32.92;30.08;;;;;;;;;;5020480;28;20457;-82
2024/03/10 01:10:14;;;;;;;33.33;30.23;;;;;;;;;;5000073;28;20286;-80
2024/03/10 01:12:42;;;;;;;30.63;28.00;;;;;;;;;;4995193;28;20456;-82
2024/03/10 01:15:14;;;;;;;31.55;28.65;;;;;;;;;;4995726;28;20555;-80
2024/03/10 01:17:41;;;;;;;31.53;28.70;;;;;;;;;;4995220;28;20717;-80
2024/03/10 01:20:10;;;;;;;31.57;28.67;;;;;;;;;;4995682;28;20458;-80
2024/03/10 01:22:37;;;;;;;31.63;28.67;;;;;;;;;;4999961;28;20480;-82
2024/03/10 01:25:06;;;;;;;31.87;28.90;;;;;;;;;;5014639;28;20556;-80
2024/03/10 01:27:34;;;;;;;29.97;26.97;;;;;;;;;;5014413;28;20502;-80
2024/03/10 01:30:02;;;;;;;33.15;30.15;;;;;;;;;;5014609;28;20484;-80
2024/03/10 01:32:29;;;;;;;32.15;29.35;;;;;;;;;;5014320;28;20212;-81
2024/03/10 01:35:01;;;;;;;32.20;29.40;;;;;;;;;;4999426;28;20226;-80
2024/03/10 01:37:29;;;;;;;31.53;28.70;;;;;;;;;;4995082;28;20433;-80
2024/03/10 01:39:56;;;;;;;30.57;27.83;;;;;;;;;;4997925;28;20424;-80
2024/03/10 01:42:23;;;;;;;30.00;27.20;;;;;;;;;;4998364;28;20489;-80
2024/03/10 01:44:51;;;;;;;32.27;29.10;;;;;;;;;;4998827;28;20536;-81
2024/03/10 01:47:18;;;;;;;32.78;29.65;;;;;;;;;;4999350;28;20461;-82
2024/03/10 01:49:45;;;;;;;31.00;28.05;;;;;;;;;;4999118;28;20272;-81
2024/03/10 01:52:12;;;;;;;31.20;28.47;;;;;;;;;;4998279;28;20606;-81
2024/03/10 01:54:39;;;;;;;30.90;27.80;;;;;;;;;;4998779;28;20856;-81
2024/03/10 01:57:06;;;;;;;30.90;28.20;;;;;;;;;;4998580;28;20445;-82
2024/03/10 01:59:33;;;;;;;31.90;29.10;;;;;;;;;;4998841;28;20210;-81
2024/03/10 02:02:04;;;;;;;30.30;27.45;;;;;;;;;;4998051;28;21059;-81
2024/03/10 02:04:32;;;;;;;33.40;30.57;;;;;;;;;;4998475;28;20230;-81
2024/03/10 02:06:59;;;;;;;31.00;28.10;;;;;;;;;;4998418;28;20471;-82
2024/03/10 02:09:26;;;;;;;29.90;27.33;;;;;;;;;;4999220;28;20428;-81
2024/03/10 02:11:54;;;;;;;32.13;29.03;;;;;;;;;;4998600;28;20457;-83
2024/03/10 02:14:21;;;;;;;30.80;28.10;;;;;;;;;;4998589;28;20471;-81
2024/03/10 02:16:49;;;;;;;29.03;26.33;;;;;;;;;;5002277;28;20221;-82
2024/03/10 02:19:18;;;;;;;30.48;27.42;;;;;;;;;;5017842;28;20937;-83
2024/03/10 02:21:45;;;;;;;30.83;28.13;;;;;;;;;;5017722;28;20231;-82
2024/03/10 02:24:16;;;;;;;32.20;29.47;;;;;;;;;;5017925;28;20443;-82
2024/03/10 02:26:46;;;;;;;30.42;27.63;;;;;;;;;;5017173;28;20456;-81
2024/03/10 02:29:18;;;;;;;32.37;29.37;;;;;;;;;;5017861;28;20209;-81
2024/03/10 02:48:15;;;;;;;31.17;28.33;;;;;;;;;;5017471;28;20684;-81
2024/03/10 02:50:42;;;;;;;32.03;29.15;;;;;;;;;;5015837;28;20275;-83
2024/03/10 02:53:10;;;;;;;31.27;28.45;;;;;;;;;;5016935;28;20252;-83
2024/03/10 02:55:37;;;;;;;29.90;27.03;;;;;;;;;;5017053;28;20268;-82
2024/03/10 02:58:06;;;;;;;32.30;29.50;;;;;;;;;;5016923;28;20925;-83
2024/03/10 03:00:33;;;;;;;32.00;29.03;;;;;;;;;;5010169;28;20478;-82
2024/03/10 03:03:00;;;;;;;30.63;28.02;;;;;;;;;;4996885;28;21142;-81
2024/03/10 03:05:27;;;;;;;29.85;27.23;;;;;;;;;;4997242;28;20230;-81
2024/03/10 03:07:54;;;;;;;32.40;29.42;;;;;;;;;;4997165;28;20208;-82
2024/03/10 03:10:21;;;;;;;33.90;31.02;;;;;;;;;;5003821;28;20197;-82
2024/03/10 03:12:48;;;;;;;33.75;30.55;;;;;;;;;;5016132;28;20210;-81
2024/03/10 03:15:17;;;;;;;33.40;30.35;;;;;;;;;;5016829;28;20709;-81
2024/03/10 03:17:44;;;;;;;29.88;27.30;;;;;;;;;;5017241;28;20197;-81
2024/03/10 03:20:15;;;;;;;31.15;28.25;;;;;;;;;;5016682;28;20264;-80
2024/03/10 03:22:43;;;;;;;31.35;28.40;;;;;;;;;;5008244;28;20218;-81
2024/03/10 03:25:14;;;;;;;31.73;28.92;;;;;;;;;;4997255;28;20647;-81
2024/03/10 03:27:42;;;;;;;31.17;28.33;;;;;;;;;;5014064;28;20214;-81
2024/03/10 03:30:09;;;;;;;29.92;27.23;;;;;;;;;;5016999;28;20694;-81
2024/03/10 03:32:38;;;;;;;28.23;25.73;;;;;;;;;;5016094;28;20216;-81
2024/03/10 03:35:05;;;;;;;30.90;28.17;;;;;;;;;;5016535;28;20705;-80
2024/03/10 03:37:32;;;;;;;30.73;27.93;;;;;;;;;;5016378;28;20264;-81
2024/03/10 03:39:59;;;;;;;31.00;28.20;;;;;;;;;;5016764;28;20457;-81
2024/03/10 03:42:27;;;;;;;30.73;27.80;;;;;;;;;;5015600;28;20495;-81
2024/03/10 03:44:54;;;;;;;34.03;31.03;;;;;;;;;;5016172;28;20228;-81
2024/03/10 03:47:21;;;;;;;30.27;27.67;;;;;;;;;;5016065;28;20985;-82
2024/03/10 03:49:50;;;;;;;31.20;28.42;;;;;;;;;;5016487;28;20452;-81
2024/03/10 03:52:18;;;;;;;30.33;27.58;;;;;;;;;;5016140;28;20212;-81
2024/03/10 03:54:45;;;;;;;31.88;28.85;;;;;;;;;;5016344;28;20237;-81
2024/03/10 03:57:12;;;;;;;32.97;29.73;;;;;;;;;;5016090;28;20827;-81
2024/03/10 03:59:40;;;;;;;29.83;27.23;;;;;;;;;;5015242;28;20204;-82
2024/03/10 04:02:07;;;;;;;31.83;29.00;;;;;;;;;;5015750;28;20488;-81
2024/03/10 04:04:34;;;;;;;30.23;27.53;;;;;;;;;;5016075;28;20527;-83
2024/03/10 04:07:04;;;;;;;30.70;27.63;;;;;;;;;;5016008;28;20423;-82
2024/03/10 04:09:31;;;;;;;28.73;26.23;;;;;;;;;;5016735;28;20499;-81
2024/03/10 04:11:59;;;;;;;30.17;27.57;;;;;;;;;;5015916;28;20796;-80
2024/03/10 04:14:28;;;;;;;31.83;28.93;;;;;;;;;;5015935;28;20465;-83
2024/03/10 04:16:55;;;;;;;31.23;28.37;;;;;;;;;;5016173;28;20433;-81
2024/03/10 04:19:22;;;;;;;30.80;27.90;;;;;;;;;;5016476;28;20458;-81
2024/03/10 04:21:49;;;;;;;30.63;27.90;;;;;;;;;;5015523;28;20446;-82
2024/03/10 04:24:21;;;;;;;31.47;28.57;;;;;;;;;;5015924;28;20501;-82
2024/03/10 04:26:48;;;;;;;29.50;27.00;;;;;;;;;;5015922;28;20523;-83
2024/03/10 04:29:15;;;;;;;28.87;26.27;;;;;;;;;;5016358;28;20479;-81
2024/03/10 04:31:42;;;;;;;31.48;28.58;;;;;;;;;;5015445;28;20847;-82
2024/03/10 04:34:10;;;;;;;31.00;28.40;;;;;;;;;;5016050;28;20226;-83
2024/03/10 04:36:37;;;;;;;31.85;29.25;;;;;;;;;;5016006;28;20241;-81
2024/03/10 04:39:05;;;;;;;32.10;29.40;;;;;;;;;;5015893;28;20309;-82
2024/03/10 04:41:33;;;;;;;31.53;28.93;;;;;;;;;;5015005;28;20551;-80
2024/03/10 04:44:00;;;;;;;33.07;30.00;;;;;;;;;;5015232;28;20983;-82
2024/03/10 04:46:28;;;;;;;31.67;28.77;;;;;;;;;;5015555;28;20459;-81
2024/03/10 04:48:57;;;;;;;33.03;30.02;;;;;;;;;;5015514;28;20296;-81
2024/03/10 04:51:24;;;;;;;32.10;29.15;;;;;;;;;;5015176;28;20211;-81
2024/03/10 04:53:51;;;;;;;33.22;30.27;;;;;;;;;;5014873;28;20222;-81
2024/03/10 04:56:18;;;;;;;33.27;30.17;;;;;;;;;;5014740;28;20232;-81
2024/03/10 04:58:49;;;;;;;33.00;30.05;;;;;;;;;;5016034;28;20444;-81
2024/03/10 05:01:19;;;;;;;36.30;32.90;;;;;;;;;;5028464;28;20194;-81
2024/03/10 05:03:46;;;;;;;31.77;28.77;;;;;;;;;;5029235;28;20494;-82
2024/03/10 05:06:13;;;;;;;33.97;30.57;;;;;;;;;;5028048;28;20221;-83
2024/03/10 05:08:41;;;;;;;33.17;29.98;;;;;;;;;;5015796;28;20504;-81
2024/03/10 05:11:09;;;;;;;32.88;29.70;;;;;;;;;;4995941;28;20210;-81
2024/03/10 05:13:36;;;;;;;34.03;30.73;;;;;;;;;;5014629;28;20252;-81
2024/03/10 05:16:05;;;;;;;34.10;30.73;;;;;;;;;;5019800;28;20236;-81
2024/03/10 05:18:32;;;;;;;32.10;29.00;;;;;;;;;;5019255;28;20202;-80
2024/03/10 05:20:59;;;;;;;36.03;32.58;;;;;;;;;;5018412;28;20448;-81
2024/03/10 05:23:28;;;;;;;34.13;30.93;;;;;;;;;;5007819;28;20660;-81
2024/03/10 05:25:55;;;;;;;34.72;31.33;;;;;;;;;;5000001;28;20453;-81
2024/03/10 05:28:22;;;;;;;32.30;29.25;;;;;;;;;;4999473;28;20210;-81
2024/03/10 05:30:48;;;;;;;35.40;30.60;;;;;;;;;;4999453;28;20214;-81
2024/03/10 05:33:18;;;;;;;33.10;29.83;;;;;;;;;;4999711;28;20415;-82
2024/03/10 05:35:45;;;;;;;28.73;25.63;;;;;;;;;;5018862;28;20210;-82
2024/03/10 05:38:12;;;;;;;35.60;32.38;;;;;;;;;;5018993;28;21209;-81
2024/03/10 05:40:39;;;;;;;33.70;30.50;;;;;;;;;;5017175;28;20213;-81
2024/03/10 05:43:06;;;;;;;32.20;29.20;;;;;;;;;;4999160;28;20265;-83
2024/03/10 05:45:33;;;;;;;34.57;31.13;;;;;;;;;;4998588;28;20416;-84
2024/03/10 05:48:00;;;;;;;32.47;29.47;;;;;;;;;;4999336;28;20508;-82
2024/03/10 05:50:29;;;;;;;33.50;30.38;;;;;;;;;;5004251;28;20511;-80
2024/03/10 05:52:56;;;;;;;30.03;27.03;;;;;;;;;;5018182;28;20212;-81
2024/03/10 05:55:23;;;;;;;31.80;28.53;;;;;;;;;;5018709;28;20487;-82
2024/03/10 05:57:50;;;;;;;32.10;29.20;;;;;;;;;;5018607;28;20479;-81
2024/03/10 06:00:17;;;;;;;34.43;31.30;;;;;;;;;;5018161;28;20522;-81
2024/03/10 06:02:45;;;;;;;33.70;30.65;;;;;;;;;;5018039;28;20484;-81
2024/03/10 06:05:13;;;;;;;34.57;31.40;;;;;;;;;;5018336;28;20316;-83
2024/03/10 06:07:43;;;;;;;32.37;29.43;;;;;;;;;;5018608;28;20547;-83
2024/03/10 06:10:10;;;;;;;35.43;32.13;;;;;;;;;;5017619;28;20812;-81
2024/03/10 06:12:38;;;;;;;35.43;32.10;;;;;;;;;;5014893;28;20924;-82
2024/03/10 06:15:09;;;;;;;34.67;31.20;;;;;;;;;;5037623;28;20491;-82
2024/03/10 06:17:37;;;;;;;34.80;31.47;;;;;;;;;;5022062;28;20878;-78
2024/03/10 06:25:35;;;;;;;34.13;30.83;;;;;;;;;;5016171;28;20520;-81
2024/03/10 06:28:03;;;;;;;35.87;32.20;;;;;;;;;;5018272;28;20497;-81
2024/03/10 06:30:30;;;;;;;37.13;33.73;;;;;;;;;;5018017;28;20535;-83
2024/03/10 06:32:57;;;;;;;34.10;30.90;;;;;;;;;;5016529;28;20440;-80
2024/03/10 06:35:25;;;;;;;36.10;32.80;;;;;;;;;;5017443;28;20469;-79
2024/03/10 06:37:53;;;;;;;32.03;29.23;;;;;;;;;;5016896;28;20975;-79
2024/03/10 06:40:21;;;;;;;34.40;31.10;;;;;;;;;;5016937;28;20452;-80
2024/03/10 06:42:48;;;;;;;32.47;29.17;;;;;;;;;;5016397;28;20571;-79
2024/03/10 06:45:15;;;;;;;34.40;31.00;;;;;;;;;;5016984;28;20476;-79
2024/03/10 06:47:42;;;;;;;36.20;32.90;;;;;;;;;;5016829;28;20460;-79
2024/03/10 06:50:09;;;;;;;33.73;30.30;;;;;;;;;;5004783;28;20453;-79
2024/03/10 06:52:36;;;;;;;33.37;30.00;;;;;;;;;;5007498;28;20547;-79
2024/03/10 06:55:05;;;;;;;35.10;31.80;;;;;;;;;;5014975;28;20535;-78
2024/03/10 06:57:32;;;;;;;34.33;31.23;;;;;;;;;;5016714;28;20453;-79
2024/03/10 06:59:59;;;;;;;31.50;28.60;;;;;;;;;;5000249;28;20465;-78
2024/03/10 07:02:26;;;;;;;32.05;29.05;;;;;;;;;;5035345;28;20447;-79
2024/03/10 07:04:56;;;;;;;32.00;29.27;;;;;;;;;;5033018;28;20311;-81
2024/03/10 07:07:24;;;;;;;34.17;30.97;;;;;;;;;;5011597;28;20844;-79
2024/03/10 07:09:51;;;;;;;33.97;30.37;;;;;;;;;;5014273;28;20945;-79
2024/03/10 07:12:19;;;;;;;34.13;30.93;;;;;;;;;;5016638;28;20423;-80
2024/03/10 07:14:46;;;;;;;31.90;29.00;;;;;;;;;;5007480;28;20528;-79
2024/03/10 07:17:13;;;;;;;33.20;30.07;;;;;;;;;;4996952;28;20523;-79
2024/03/10 07:19:41;;;;;;;33.30;30.17;;;;;;;;;;4996669;28;20504;-80
2024/03/10 07:22:09;;;;;;;31.27;28.37;;;;;;;;;;4997035;28;20445;-79
2024/03/10 07:24:37;;;;;;;34.83;31.53;;;;;;;;;;5016426;28;20473;-79
2024/03/10 07:27:04;;;;;;;34.87;31.50;;;;;;;;;;5016371;28;20430;-80
2024/03/10 07:29:32;;;;;;;30.27;27.47;;;;;;;;;;5016030;28;20448;-79
2024/03/10 07:32:00;;;;;;;35.07;31.47;;;;;;;;;;5015901;28;20898;-79
2024/03/10 07:34:27;;;;;;;33.60;30.50;;;;;;;;;;5015878;28;20811;-81
2024/03/10 07:36:54;;;;;;;35.30;31.90;;;;;;;;;;5015632;28;20214;-80
2024/03/10 07:39:21;;;;;;;35.73;32.20;;;;;;;;;;5015763;28;20507;-79
2024/03/10 07:41:48;;;;;;;34.57;31.23;;;;;;;;;;5015837;28;20463;-79
2024/03/10 07:44:16;;;;;;;35.50;31.90;;;;;;;;;;5015954;28;20492;-79
2024/03/10 07:46:44;;;;;;;36.30;32.80;;;;;;;;;;5015986;28;20448;-79
2024/03/10 07:49:11;;;;;;;36.00;32.63;;;;;;;;;;5016184;28;20423;-80
2024/03/10 07:51:38;;;;;;;33.87;30.37;;;;;;;;;;5014749;28;20448;-80
2024/03/10 07:54:05;;;;;;;35.20;31.90;;;;;;;;;;4996040;28;20469;-79
2024/03/10 07:56:33;;;;;;;32.83;29.70;;;;;;;;;;5005635;28;20483;-80
2024/03/10 07:59:00;;;;;;;36.60;33.00;;;;;;;;;;5007048;28;20492;-80
2024/03/10 08:01:27;;;;;;;33.50;30.47;;;;;;;;;;4994984;28;20944;-78
2024/03/10 08:03:55;;;;;;;37.60;34.07;;;;;;;;;;4995530;28;20508;-80
2024/03/10 08:06:22;;;;;;;39.80;35.93;;;;;;;;;;4995890;28;20420;-79
2024/03/10 08:08:52;;;;;;;36.87;33.37;;;;;;;;;;4996020;28;20439;-78
2024/03/10 08:11:19;;;;;;;39.07;35.20;;;;;;;;;;4995748;28;20449;-80
2024/03/10 08:13:47;;;;;;;36.53;33.00;;;;;;;;;;4996122;28;20473;-79
2024/03/10 08:16:14;;;;;;;42.47;38.33;;;;;;;;;;4995653;28;20445;-79
2024/03/10 08:18:42;;;;;;;39.30;35.80;;;;;;;;;;4996594;28;20519;-79
2024/03/10 08:21:11;;;;;;;34.83;31.23;;;;;;;;;;4998631;28;20531;-78
2024/03/10 08:23:40;;;;;;;35.90;32.70;;;;;;;;;;5000446;28;20584;-79
2024/03/10 08:26:09;;;;;;;33.73;30.53;;;;;;;;;;4996072;28;20454;-81
2024/03/10 08:28:36;;;;;;;35.73;32.60;;;;;;;;;;4995433;28;20945;-80
2024/03/10 08:31:04;;;;;;;36.20;32.90;;;;;;;;;;4995316;28;20456;-80
2024/03/10 08:33:32;;;;;;;38.23;34.43;;;;;;;;;;4995374;28;20473;-80
2024/03/10 08:36:00;;;;;;;37.80;34.20;;;;;;;;;;4995922;28;20435;-79
2024/03/10 08:38:29;;;;;;;39.13;35.47;;;;;;;;;;4995716;28;20500;-81
2024/03/10 08:40:57;;;;;;;36.17;32.70;;;;;;;;;;4995513;28;20458;-80
2024/03/10 08:43:24;;;;;;;39.93;35.77;;;;;;;;;;4995565;28;20471;-79
2024/03/10 08:45:51;;;;;;;39.07;34.87;;;;;;;;;;4995684;28;20453;-81
2024/03/10 08:48:19;;;;;;;38.63;34.87;;;;;;;;;;4995123;28;20487;-80
2024/03/10 08:50:46;;;;;;;35.90;32.23;;;;;;;;;;4995520;28;20551;-79
2024/03/10 08:53:13;;;;;;;38.47;34.63;;;;;;;;;;4998213;28;20512;-81
2024/03/10 08:55:44;;;;;;;40.33;36.73;;;;;;;;;;5015662;28;20464;-80
2024/03/10 08:58:12;;;;;;;37.90;34.27;;;;;;;;;;5013808;28;20452;-79
2024/03/10 09:00:39;;;;;;;38.63;34.97;;;;;;;;;;4995311;28;20426;-82
2024/03/10 09:03:07;;;;;;;40.10;36.33;;;;;;;;;;4998007;28;20456;-79
2024/03/10 09:05:35;;;;;;;38.73;34.67;;;;;;;;;;4995428;28;20460;-79
2024/03/10 09:08:02;;;;;;;40.33;36.53;;;;;;;;;;5012344;28;20456;-88
2024/03/10 09:10:29;;;;;;;38.97;35.03;;;;;;;;;;5015017;28;20484;-88
2024/03/10 09:12:58;;;;;;;41.70;37.40;;;;;;;;;;5015645;28;20452;-79
2024/03/10 09:15:25;;;;;;;41.37;37.37;;;;;;;;;;5011464;28;20515;-78
2024/03/10 09:17:53;;;;;;;40.17;36.27;;;;;;;;;;5013226;28;20507;-77
2024/03/10 09:20:20;;;;;;;40.90;36.77;;;;;;;;;;5009132;28;20555;-78
2024/03/10 09:22:48;;;;;;;41.20;37.30;;;;;;;;;;5004355;28;20460;-77
2024/03/10 09:25:21;;;;;;;46.70;42.40;;;;;;;;;;5009279;28;20654;-77
2024/03/10 09:27:48;;;;;;;37.53;33.87;;;;;;;;;;5011009;28;20436;-78
2024/03/10 09:30:18;;;;;;;39.70;35.57;;;;;;;;;;5010446;28;20520;-77
2024/03/10 09:32:49;;;;;;;42.83;38.43;;;;;;;;;;5016514;28;20442;-78
2024/03/10 09:35:20;;;;;;;41.87;37.73;;;;;;;;;;5025370;28;20478;-77
2024/03/10 09:37:47;;;;;;;40.87;36.77;;;;;;;;;;4990947;28;20473;-79
2024/03/10 09:40:15;;;;;;;42.47;38.30;;;;;;;;;;5004715;28;20499;-77
2024/03/10 09:42:42;;;;;;;44.50;40.00;;;;;;;;;;5009813;28;20448;-79
2024/03/10 09:45:16;;;;;;;44.23;39.83;;;;;;;;;;5028523;28;20483;-77
2024/03/10 09:47:48;;;;;;;40.43;36.53;;;;;;;;;;5030509;28;20836;-77
2024/03/10 09:50:22;;;;;;;43.67;39.67;;;;;;;;;;5030198;28;20835;-78
2024/03/10 09:52:50;;;;;;;43.10;39.00;;;;;;;;;;5029539;28;20438;-77
2024/03/10 09:55:20;;;;;;;44.53;39.90;;;;;;;;;;5029861;28;20482;-77
2024/03/10 09:57:47;;;;;;;44.67;40.03;;;;;;;;;;5030320;28;20494;-77
2024/03/10 10:00:15;;;;;;;46.23;41.63;;;;;;;;;;5017925;28;20464;-77
2024/03/10 10:02:44;;;;;;;42.10;37.90;;;;;;;;;;5008580;28;20519;-77
2024/03/10 10:05:16;;;;;;;43.30;38.70;;;;;;;;;;4994058;28;20488;-77
2024/03/10 10:07:44;;;;;;;44.10;39.73;;;;;;;;;;4994237;28;20464;-77
2024/03/10 10:10:12;;;;;;;43.03;38.43;;;;;;;;;;4993995;28;20485;-77
2024/03/10 10:12:40;;;;;;;41.53;37.63;;;;;;;;;;4993432;28;20940;-77
2024/03/10 10:15:11;;;;;;;43.73;39.67;;;;;;;;;;4998767;28;20530;-77
2024/03/10 10:17:38;;;;;;;39.40;35.57;;;;;;;;;;5013502;28;20867;-78
2024/03/10 10:20:11;;;;;;;46.13;41.73;;;;;;;;;;5012620;28;20463;-77
2024/03/10 10:22:42;;;;;;;44.27;39.77;;;;;;;;;;5013281;28;20800;-80
2024/03/10 10:25:12;;;;;;;42.70;38.20;;;;;;;;;;5014749;28;20821;-76
2024/03/10 10:27:47;;;;;;;42.73;38.63;;;;;;;;;;5013174;28;20452;-78
2024/03/10 10:30:18;;;;;;;45.67;40.97;;;;;;;;;;5013256;28;20490;-79
2024/03/10 10:32:45;;;;;;;42.07;37.77;;;;;;;;;;5003776;28;20430;-78
2024/03/10 10:35:12;;;;;;;42.03;37.60;;;;;;;;;;4994857;28;20523;-78
2024/03/10 10:37:40;;;;;;;46.67;42.07;;;;;;;;;;4994052;28;20815;-78
2024/03/10 10:40:12;;;;;;;43.13;39.07;;;;;;;;;;4993564;28;20790;-77
2024/03/10 10:42:39;;;;;;;42.20;38.10;;;;;;;;;;4993119;28;20473;-78
2024/03/10 10:45:09;;;;;;;47.30;42.50;;;;;;;;;;4993318;28;20497;-77
2024/03/10 10:47:37;;;;;;;46.33;41.67;;;;;;;;;;4993471;28;20444;-77
2024/03/10 10:50:14;;;;;;;45.17;40.87;;;;;;;;;;4993619;28;20805;-78
2024/03/10 10:52:41;;;;;;;48.03;43.03;;;;;;;;;;4993635;28;20517;-78
2024/03/10 10:55:11;;;;;;;47.27;42.43;;;;;;;;;;4993155;28;20528;-78
2024/03/10 10:57:41;;;;;;;50.73;45.73;;;;;;;;;;4993457;28;20411;-78
2024/03/10 11:00:18;;;;;;;48.57;43.70;;;;;;;;;;4993484;28;20430;-77
2024/03/10 11:02:45;;;;;;;46.10;41.70;;;;;;;;;;4992885;28;20412;-77
2024/03/10 11:05:13;;;;;;;45.13;40.73;;;;;;;;;;4993303;28;20545;-78
2024/03/10 11:07:43;;;;;;;65.73;59.30;;;;;;;;;;4993150;28;20891;-77
2024/03/10 11:10:29;;;;;;;51.57;46.63;;;;;;;;;;4993696;28;20835;-77
2024/03/10 11:13:09;;;;;;;48.30;43.50;;;;;;;;;;4992139;28;20441;-77
2024/03/10 11:15:36;;;;;;;47.20;42.07;;;;;;;;;;4993213;28;20488;-77
2024/03/10 11:18:19;;;;;;;48.83;43.80;;;;;;;;;;4993421;28;20443;-79
2024/03/10 11:20:46;;;;;;;43.07;38.93;;;;;;;;;;5003284;28;20468;-77
2024/03/10 11:23:13;;;;;;;47.67;43.00;;;;;;;;;;5012802;28;20793;-77
2024/03/10 11:25:49;;;;;;;45.13;40.20;;;;;;;;;;5012069;28;20560;-77
2024/03/10 11:28:20;;;;;;;48.40;43.40;;;;;;;;;;4999738;28;20410;-82
2024/03/10 11:30:50;;;;;;;52.30;47.40;;;;;;;;;;5016482;28;20429;-81
2024/03/10 11:33:24;;;;;;;47.40;42.70;;;;;;;;;;4994872;28;20971;-79
2024/03/10 11:35:54;;;;;;;45.10;40.67;;;;;;;;;;5029296;28;20447;-80
2024/03/10 11:38:21;;;;;;;47.00;42.27;;;;;;;;;;5036958;28;20411;-80
2024/03/10 11:40:56;;;;;;;51.33;46.57;;;;;;;;;;5036293;28;20478;-82
2024/03/10 11:43:26;;;;;;;38.23;34.00;;;;;;;;;;5035376;28;20484;-78
2024/03/10 11:45:53;;;;;;;45.77;41.13;;;;;;;;;;5035151;28;20491;-78
2024/03/10 11:48:20;;;;;;;49.13;42.67;;;;;;;;;;5024954;28;20457;-78
2024/03/10 11:50:49;;;;;;;47.50;43.10;;;;;;;;;;5010286;28;20427;-79
2024/03/10 11:53:16;;;;;;;42.17;37.97;;;;;;;;;;4995368;28;20481;-79
2024/03/10 11:55:44;;;;;;;44.83;40.23;;;;;;;;;;4994683;28;20465;-80
2024/03/10 11:58:11;;;;;;;43.37;38.93;;;;;;;;;;4994776;28;20494;-78
2024/03/10 12:00:39;;;;;;;47.37;42.83;;;;;;;;;;4994682;28;20424;-81
2024/03/10 12:03:08;;;;;;;43.60;39.47;;;;;;;;;;5007670;28;20483;-77
2024/03/10 12:05:36;;;;;;;47.87;43.47;;;;;;;;;;5015065;28;20520;-79
2024/03/10 12:08:05;;;;;;;42.60;38.70;;;;;;;;;;5014467;28;20837;-80
2024/03/10 12:10:33;;;;;;;44.00;39.83;;;;;;;;;;5015053;28;20484;-79
2024/03/10 12:13:00;;;;;;;46.43;42.30;;;;;;;;;;5014713;28;20452;-78
2024/03/10 12:15:29;;;;;;;47.13;42.30;;;;;;;;;;5013657;28;20504;-78
2024/03/10 12:18:00;;;;;;;47.23;42.87;;;;;;;;;;5010610;28;20464;-79
2024/03/10 12:20:28;;;;;;;42.87;39.07;;;;;;;;;;5014626;28;20482;-79
2024/03/10 12:22:58;;;;;;;45.50;41.27;;;;;;;;;;5013997;28;20448;-79
2024/03/10 12:25:25;;;;;;;43.37;39.43;;;;;;;;;;5013361;28;20531;-80
2024/03/10 12:27:52;;;;;;;45.33;40.90;;;;;;;;;;5014327;28;20457;-79
2024/03/10 12:30:21;;;;;;;44.83;40.93;;;;;;;;;;5014720;28;20463;-78
2024/03/10 12:32:50;;;;;;;45.93;41.60;;;;;;;;;;5014126;28;20481;-80
2024/03/10 12:35:19;;;;;;;47.13;42.70;;;;;;;;;;5013813;28;20472;-80
2024/03/10 12:37:46;;;;;;;47.33;42.93;;;;;;;;;;5014491;28;20433;-80
2024/03/10 12:40:15;;;;;;;43.20;39.00;;;;;;;;;;5014442;28;20445;-80
2024/03/10 12:42:43;;;;;;;42.73;38.93;;;;;;;;;;5014205;28;20440;-78
2024/03/10 12:45:15;;;;;;;45.30;41.20;;;;;;;;;;5013894;28;20491;-78
2024/03/10 12:47:42;;;;;;;45.23;40.70;;;;;;;;;;5013904;28;20914;-78
2024/03/10 12:50:10;;;;;;;42.63;38.40;;;;;;;;;;5014078;28;20436;-80
2024/03/10 12:52:38;;;;;;;45.90;41.70;;;;;;;;;;5013659;28;20440;-79
2024/03/10 12:55:07;;;;;;;44.37;40.13;;;;;;;;;;5014002;28;20464;-80
2024/03/10 12:57:36;;;;;;;44.40;39.90;;;;;;;;;;5013907;28;20980;-78
2024/03/10 13:00:06;;;;;;;40.77;36.63;;;;;;;;;;5014475;28;20481;-79
2024/03/10 13:02:34;;;;;;;44.13;40.27;;;;;;;;;;5013895;28;20437;-78
2024/03/10 13:05:03;;;;;;;41.87;37.90;;;;;;;;;;5013989;28;20492;-78
2024/03/10 13:07:30;;;;;;;44.13;39.80;;;;;;;;;;5014085;28;20460;-79
2024/03/10 13:09:58;;;;;;;43.00;38.90;;;;;;;;;;5009942;28;20512;-81
2024/03/10 13:12:26;;;;;;;42.87;38.90;;;;;;;;;;5008980;28;20452;-78
2024/03/10 13:14:53;;;;;;;42.63;38.47;;;;;;;;;;5011298;28;20465;-77
2024/03/10 13:17:20;;;;;;;41.83;37.90;;;;;;;;;;5011114;28;20456;-77
2024/03/10 13:19:47;;;;;;;43.80;39.70;;;;;;;;;;5011507;28;20499;-79
2024/03/10 13:22:14;;;;;;;43.50;39.57;;;;;;;;;;5010763;28;20464;-77
2024/03/10 13:24:41;;;;;;;40.80;37.07;;;;;;;;;;5010763;28;20478;-78
2024/03/10 13:27:10;;;;;;;43.07;39.07;;;;;;;;;;5010981;28;20452;-78
2024/03/10 13:29:38;;;;;;;40.80;37.23;;;;;;;;;;5011003;28;20414;-77
2024/03/10 13:32:05;;;;;;;42.87;38.97;;;;;;;;;;5010289;28;21328;-78
2024/03/10 13:34:32;;;;;;;42.67;38.97;;;;;;;;;;5011691;28;20451;-77
2024/03/10 13:37:04;;;;;;;42.67;38.80;;;;;;;;;;5019128;28;20448;-77
2024/03/10 13:39:31;;;;;;;46.30;42.20;;;;;;;;;;5020749;28;20419;-76
2024/03/10 13:41:58;;;;;;;41.93;38.23;;;;;;;;;;5020228;28;20455;-77
2024/03/10 13:44:27;;;;;;;46.50;42.63;;;;;;;;;;5017745;28;20719;-78
2024/03/10 13:46:54;;;;;;;43.13;39.17;;;;;;;;;;5014462;28;20463;-76
2024/03/10 13:49:21;;;;;;;43.43;39.10;;;;;;;;;;5015690;28;20429;-78
2024/03/10 13:51:48;;;;;;;37.23;33.60;;;;;;;;;;5014476;28;20445;-78
2024/03/10 13:54:15;;;;;;;43.30;39.10;;;;;;;;;;5014711;28;20490;-79
2024/03/10 13:56:44;;;;;;;37.70;34.27;;;;;;;;;;5015284;28;20441;-77
2024/03/10 13:59:12;;;;;;;42.57;38.63;;;;;;;;;;5014686;28;20971;-78
2024/03/10 14:01:42;;;;;;;42.10;38.10;;;;;;;;;;5014357;28;20816;-78
2024/03/10 14:04:11;;;;;;;42.73;38.60;;;;;;;;;;5015034;28;20476;-80
2024/03/10 14:06:38;;;;;;;39.47;36.13;;;;;;;;;;5014910;28;20519;-79
2024/03/10 14:09:05;;;;;;;40.50;37.00;;;;;;;;;;5015902;28;20461;-82
2024/03/10 14:11:32;;;;;;;44.33;40.53;;;;;;;;;;5006365;28;20892;-78
2024/03/10 14:14:00;;;;;;;39.37;35.87;;;;;;;;;;5018558;28;20483;-78
2024/03/10 14:16:27;;;;;;;41.10;37.37;;;;;;;;;;5018761;28;20460;-80
2024/03/10 14:18:56;;;;;;;37.77;34.57;;;;;;;;;;5019551;28;20519;-78
2024/03/10 14:21:25;;;;;;;41.93;38.00;;;;;;;;;;5018709;28;20463;-79
2024/03/10 14:23:52;;;;;;;40.17;36.67;;;;;;;;;;5018839;28;20453;-80
2024/03/10 14:26:20;;;;;;;39.53;36.10;;;;;;;;;;5019209;28;20491;-79
2024/03/10 14:28:48;;;;;;;38.23;34.93;;;;;;;;;;5018949;28;20483;-79
2024/03/10 14:31:15;;;;;;;41.00;37.40;;;;;;;;;;5018758;28;20468;-78
2024/03/10 14:33:42;;;;;;;41.37;37.40;;;;;;;;;;5018865;28;20830;-79
2024/03/10 14:36:11;;;;;;;41.50;37.90;;;;;;;;;;5018834;28;20444;-80
2024/03/10 14:38:38;;;;;;;42.73;38.60;;;;;;;;;;5018075;28;20476;-79
2024/03/10 14:41:05;;;;;;;41.67;37.80;;;;;;;;;;5017826;28;20427;-81
2024/03/10 14:43:32;;;;;;;42.87;39.10;;;;;;;;;;5018780;28;20972;-79